Terminal Aerodrome Forecast
Issued by NWS

Current Version | Previous Version | Graphics & Text | Print | Product List | Glossary On
Versions: 1 2 3 4 5 6 7 8 9 10 11 12 13 14 15 16 17 18 19 20 21
095
FTUS41 KILN 200546 AAC
TAFLUK
TAF AMD
KLUK 200546Z 2006/2106 00000KT 1/4SM FG VV005
     FM201300 00000KT 1SM BR SCT005 BKN009
     FM201400 VRB03KT 4SM BR BKN015
     FM201500 13004KT P6SM SCT025
     FM201800 14005KT P6SM SKC
     FM210100 12005KT P6SM BKN250=

USA.gov is the U.S. government's official web portal to all federal, state and local government web resources and services.